^^
Station Historical Data
Daily Summary for March 22, 2017 Units:  English    Metric   Both
« Previous Day
Next Day »
Daily Weekly Monthly Yearly Custom
  High: Low: Average:
Temperature: 46.0 °F 21.3 °F 31.9 °F
Dew Point: 25.9 °F -0.8 °F 10.1 °F
Humidity: 58% 27% 41%
Wind Speed: 10.0mph 0.0mph 4.3mph
Wind Gust: 28.0mph - -
Wind- - SSW
Pressure: 30.46 in 29.88 in -
Precipitation: 0.00 in    
Historical Graphs
 
 
Tabular Data for March 22, 2017
Time Temperature Dew Point Pressure Wind Wind Speed Wind Gust Humidity Rainfall Rate (Hourly) Conditions
00:00 46.0 °F 19.8 °F 29.88 in Calm   1.0 mph 35% 0.00 in FEW
00:15 45.6 °F 20.2 °F 29.88 in Calm   2.0 mph 36% 0.00 in BKN
00:30 44.9 °F 19.5 °F 29.88 in Calm   1.0 mph 36% 0.00 in BKN
00:45 43.9 °F 19.9 °F 29.88 in Calm   1.0 mph 38% 0.00 in BKN
01:00 41.3 °F 21.5 °F 29.88 in Calm     45% 0.00 in BKN
02:15 40.8 °F 21.1 °F 29.88 in Calm     45% 0.00 in SCT
02:30 41.5 °F 21.2 °F 29.88 in Calm   1.0 mph 44% 0.00 in SCT
02:45 42.6 °F 21.6 °F 29.88 in NNE 1.0 mph 6.0 mph 43% 0.00 in SCT
03:00 42.7 °F 23.3 °F 29.88 in NNE 1.0 mph 7.0 mph 46% 0.00 in SCT
03:15 42.7 °F 24.4 °F 29.88 in NNW 3.0 mph 9.0 mph 48% 0.00 in FEW
03:30 42.3 °F 25.0 °F 29.89 in Calm   10.0 mph 50% 0.00 in FEW
03:45 41.6 °F 24.8 °F 29.89 in Calm   8.0 mph 51% 0.00 in FEW
04:00 41.2 °F 25.3 °F 29.89 in NNW 1.0 mph 10.0 mph 53% 0.00 in FEW
04:15 40.4 °F 25.5 °F 29.89 in NNE 3.0 mph 12.0 mph 55% 0.00 in CLR
04:30 39.9 °F 25.9 °F 29.90 in NE 2.0 mph 14.0 mph 57% 0.00 in CLR
04:45 39.3 °F 25.7 °F 29.91 in NE 2.0 mph 16.0 mph 58% 0.00 in CLR
05:00 38.7 °F 24.4 °F 29.92 in NW 5.0 mph 13.0 mph 56% 0.00 in CLR
05:15 38.0 °F 24.5 °F 29.92 in WSW 3.0 mph 12.0 mph 58% 0.00 in CLR
05:30 37.3 °F 23.0 °F 29.93 in SSW 3.0 mph 10.0 mph 56% 0.00 in CLR
05:45 36.9 °F 21.8 °F 29.93 in NW 6.0 mph 13.0 mph 54% 0.00 in CLR
06:00 36.5 °F 21.8 °F 29.94 in SSE 3.0 mph 15.0 mph 55% 0.00 in CLR
06:15 36.1 °F 21.9 °F 29.95 in NW 2.0 mph 12.0 mph 56% 0.00 in FEW
06:30 35.9 °F 21.7 °F 29.95 in NNW 5.0 mph 12.0 mph 56% 0.00 in FEW
06:45 35.6 °F 21.9 °F 29.96 in SSE 3.0 mph 16.0 mph 57% 0.00 in FEW
07:00 35.3 °F 22.0 °F 29.97 in SW 1.0 mph 12.0 mph 58% 0.00 in FEW
07:15 35.0 °F 21.3 °F 29.98 in West 5.0 mph 14.0 mph 57% 0.00 in FEW
07:30 34.7 °F 21.0 °F 29.99 in North 2.0 mph 12.0 mph 57% 0.00 in FEW
07:45 34.4 °F 20.7 °F 29.99 in NNE 3.0 mph 14.0 mph 57% 0.00 in FEW
08:00 34.0 °F 19.9 °F 30.00 in North 9.0 mph 26.0 mph 56% 0.00 in FEW
08:15 33.4 °F 18.9 °F 30.00 in NNW 5.0 mph 20.0 mph 55% 0.00 in SCT
08:30 33.2 °F 18.8 °F 30.00 in NNW 7.0 mph 21.0 mph 55% 0.00 in SCT
08:45 32.7 °F 17.9 °F 30.03 in NNW 10.0 mph 18.0 mph 54% 0.00 in SCT
09:00 33.0 °F 19.0 °F 30.04 in NNE 1.0 mph 13.0 mph 56% 0.00 in SCT
09:15 33.1 °F 17.3 °F 30.05 in NW 7.0 mph 20.0 mph 52% 0.00 in SCT
09:30 32.5 °F 15.0 °F 30.07 in North 6.0 mph 22.0 mph 48% 0.00 in SCT
09:45 32.5 °F 13.5 °F 30.08 in North 5.0 mph 22.0 mph 45% 0.00 in SCT
10:00 31.9 °F 12.0 °F 30.09 in ENE 7.0 mph 23.0 mph 43% 0.00 in SCT
10:15 32.0 °F 13.0 °F 30.10 in NNW 3.0 mph 18.0 mph 45% 0.00 in SCT
10:30 31.8 °F 13.3 °F 30.11 in NW 5.0 mph 16.0 mph 46% 0.00 in SCT
10:45 31.4 °F 10.9 °F 30.12 in NNW 3.0 mph 21.0 mph 42% 0.00 in SCT
11:00 31.3 °F 10.8 °F 30.13 in North 3.0 mph 20.0 mph 42% 0.00 in SCT
11:15 31.0 °F 10.6 °F 30.15 in NNW 6.0 mph 21.0 mph 42% 0.00 in FEW
11:30 30.6 °F 8.0 °F 30.15 in NNE 3.0 mph 23.0 mph 38% 0.00 in FEW
11:45 30.5 °F 8.4 °F 30.16 in NW 5.0 mph 20.0 mph 39% 0.00 in FEW
12:00 30.8 °F 6.3 °F 30.17 in North 8.0 mph 17.0 mph 35% 0.00 in FEW
12:15 30.4 °F 6.0 °F 30.17 in NNE 7.0 mph 20.0 mph 35% 0.00 in FEW
12:30 30.2 °F 3.8 °F 30.18 in WNW 3.0 mph 23.0 mph 32% 0.00 in FEW
12:45 30.1 °F 3.0 °F 30.19 in NNW 3.0 mph 17.0 mph 31% 0.00 in FEW
13:00 29.4 °F 1.0 °F 30.19 in NNW 6.0 mph 22.0 mph 29% 0.00 in FEW
13:15 29.3 °F 0.2 °F 30.19 in NNW 10.0 mph 25.0 mph 28% 0.00 in CLR
13:30 29.4 °F 1.0 °F 30.19 in WNW 3.0 mph 24.0 mph 29% 0.00 in CLR
13:45 29.7 °F 2.0 °F 30.18 in NW 5.0 mph 20.0 mph 30% 0.00 in CLR
14:00 29.8 °F 1.4 °F 30.19 in NNW 6.0 mph 21.0 mph 29% 0.00 in CLR
14:15 29.8 °F 0.6 °F 30.19 in WNW 8.0 mph 26.0 mph 28% 0.00 in CLR
14:30 29.8 °F -0.2 °F 30.19 in North 6.0 mph 21.0 mph 27% 0.00 in CLR
14:45 30.3 °F 1.8 °F 30.19 in NNE 6.0 mph 21.0 mph 29% 0.00 in CLR
15:00 30.2 °F 1.7 °F 30.19 in North 8.0 mph 21.0 mph 29% 0.00 in CLR
15:15 30.7 °F 2.9 °F 30.20 in NW 3.0 mph 20.0 mph 30% 0.00 in CLR
15:30 30.5 °F 2.0 °F 30.20 in NW 8.0 mph 21.0 mph 29% 0.00 in CLR
15:45 30.4 °F 1.9 °F 30.21 in NNW 8.0 mph 23.0 mph 29% 0.00 in CLR
16:00 30.3 °F 0.3 °F 30.22 in NNW 10.0 mph 26.0 mph 27% 0.00 in CLR
16:15 30.6 °F 2.1 °F 30.22 in North 7.0 mph 25.0 mph 29% 0.00 in CLR
16:30 30.8 °F 3.0 °F 30.24 in North 7.0 mph 23.0 mph 30% 0.00 in CLR
16:45 30.3 °F 1.0 °F 30.24 in North 8.0 mph 28.0 mph 28% 0.00 in CLR
17:00 29.9 °F -0.1 °F 30.25 in NNW 6.0 mph 22.0 mph 27% 0.00 in CLR
17:15 30.1 °F 2.4 °F 30.25 in NW 5.0 mph 20.0 mph 30% 0.00 in CLR
17:30 29.6 °F 1.1 °F 30.26 in NW 9.0 mph 22.0 mph 29% 0.00 in CLR
17:45 29.6 °F 1.9 °F 30.27 in NNE 7.0 mph 21.0 mph 30% 0.00 in CLR
18:00 28.9 °F 0.6 °F 30.27 in NNW 5.0 mph 17.0 mph 29% 0.00 in CLR
18:15 28.6 °F 1.0 °F 30.29 in NE 6.0 mph 21.0 mph 30% 0.00 in CLR
18:30 28.4 °F 2.2 °F 30.30 in NNE 3.0 mph 17.0 mph 32% 0.00 in CLR
18:45 28.2 °F 2.7 °F 30.31 in NNW 3.0 mph 12.0 mph 33% 0.00 in CLR
19:00 27.3 °F 2.6 °F 30.32 in NNE 5.0 mph 17.0 mph 34% 0.00 in CLR
19:15 26.6 °F 3.8 °F 30.33 in NW 1.0 mph 13.0 mph 37% 0.00 in CLR
19:30 26.0 °F 1.4 °F 30.34 in NNE 7.0 mph 14.0 mph 34% 0.00 in CLR
19:45 25.5 °F 0.3 °F 30.35 in North 3.0 mph 14.0 mph 33% 0.00 in CLR
20:00 25.0 °F -0.8 °F 30.36 in NNW 8.0 mph 16.0 mph 32% 0.00 in CLR
20:15 24.7 °F 0.3 °F 30.36 in NNW 5.0 mph 18.0 mph 34% 0.00 in CLR
20:30 24.4 °F 0.0 °F 30.38 in North 2.0 mph 17.0 mph 34% 0.00 in CLR
20:45 24.0 °F -0.3 °F 30.39 in NNE 7.0 mph 14.0 mph 34% 0.00 in CLR
21:00 23.7 °F 0.0 °F 30.39 in North 5.0 mph 15.0 mph 35% 0.00 in CLR
21:15 23.3 °F -0.4 °F 30.40 in NNW 3.0 mph 14.0 mph 35% 0.00 in CLR
21:30 23.0 °F 0.0 °F 30.41 in NNE 6.0 mph 15.0 mph 36% 0.00 in CLR
21:45 22.7 °F 0.3 °F 30.41 in NW 5.0 mph 8.0 mph 37% 0.00 in CLR
22:00 22.5 °F 0.1 °F 30.42 in NE 3.0 mph 8.0 mph 37% 0.00 in CLR
22:15 22.4 °F 0.0 °F 30.42 in NNW 5.0 mph 14.0 mph 37% 0.00 in CLR
22:30 22.2 °F 0.4 °F 30.43 in NNW 3.0 mph 14.0 mph 38% 0.00 in CLR
22:45 22.0 °F 0.8 °F 30.44 in North 2.0 mph 12.0 mph 39% 0.00 in CLR
23:00 21.8 °F 1.7 °F 30.44 in East 1.0 mph 8.0 mph 41% 0.00 in CLR
23:15 21.5 °F 2.0 °F 30.44 in North 2.0 mph 14.0 mph 42% 0.00 in CLR
23:30 21.4 °F 2.4 °F 30.45 in ENE 3.0 mph 15.0 mph 43% 0.00 in CLR
23:45 21.3 °F 2.2 °F 30.46 in NNE 5.0 mph 16.0 mph 43% 0.00 in CLR
TarryTown NY Weather
Compliments of Weather Underground - 1.5 mb